Time;durP1;ratioP1;P1;durP2;ratioP2;P2;SDS_P1;SDS_P2;PMS_P1;PMS_P2;Temp;Humidity;BMP_temperature;BMP_pressure;BME280_temperature;BME280_humidity;BME280_pressure;Samples;Min_cycle;Max_cycle;Signal;HPM_P1;HPM_P2
2023/08/07 07:01:21;;;;;;;0.10;0.10;;;26.20;99.90;30.00;101553.00;;;;6229402;22;1970349;-72
2023/08/07 07:03:52;;;;;;;0.40;0.40;;;26.10;99.90;28.80;101576.00;;;;6281887;22;20481;-71
2023/08/07 07:06:20;;;;;;;0.20;0.20;;;25.80;99.90;28.10;101593.00;;;;6282629;22;20224;-71
2023/08/07 07:08:46;;;;;;;0.10;0.10;;;24.50;99.90;28.00;101602.00;;;;6282278;22;20140;-71
2023/08/07 07:11:12;;;;;;;0.20;0.20;;;24.30;99.90;29.00;101587.00;;;;6309127;22;20142;-71
2023/08/07 07:13:38;;;;;;;0.55;0.55;;;24.90;99.90;29.40;101575.00;;;;6282031;22;20159;-71
2023/08/07 07:16:07;;;;;;;0.10;0.10;;;25.10;99.90;29.30;101539.00;;;;6281817;22;20141;-71
2023/08/07 07:18:33;;;;;;;0.10;0.10;;;25.10;99.90;29.50;101590.00;;;;6281883;22;20149;-71
2023/08/07 07:21:00;;;;;;;0.10;0.10;;;25.30;99.90;28.50;101604.00;;;;6281741;22;20149;-71
2023/08/07 07:23:26;;;;;;;0.10;0.10;;;25.20;99.90;28.50;101607.00;;;;6282065;22;20251;-71
2023/08/07 07:25:54;;;;;;;0.10;0.10;;;24.60;99.90;27.90;101623.00;;;;6281715;22;20573;-71
2023/08/07 07:28:21;;;;;;;0.15;0.15;;;24.00;99.90;25.80;101650.00;;;;6281989;22;20171;-71
2023/08/07 07:30:47;;;;;;;0.10;0.10;;;22.70;99.90;26.50;101656.00;;;;6308911;22;20163;-71
2023/08/07 07:33:13;;;;;;;0.10;0.10;;;22.40;99.90;27.10;101649.00;;;;6281422;22;20149;-71
2023/08/07 07:35:46;;;;;;;0.20;0.20;;;22.70;99.90;26.90;101663.00;;;;6282367;22;20145;-71
2023/08/07 07:38:22;;;;;;;0.10;0.10;;;22.90;99.90;26.60;101674.00;;;;6283157;22;20139;-71
2023/08/07 07:40:47;;;;;;;0.10;0.10;;;22.70;99.90;27.40;101668.00;;;;6281838;22;20219;-72
2023/08/07 07:43:16;;;;;;;0.10;0.10;;;23.10;99.90;27.80;101660.00;;;;6281874;22;20215;-71
2023/08/07 07:45:44;;;;;;;0.20;0.20;;;23.60;99.90;27.50;101649.00;;;;6281711;22;20580;-72
2023/08/07 07:48:10;;;;;;;0.13;0.13;;;23.50;99.90;27.00;101661.00;;;;6309091;22;20462;-71
2023/08/07 07:50:36;;;;;;;0.10;0.10;;;23.40;99.90;27.60;101648.00;;;;6281792;22;20140;-71
2023/08/07 07:53:02;;;;;;;0.10;0.10;;;23.70;99.90;28.20;101637.00;;;;6308398;22;20144;-71
2023/08/07 07:55:28;;;;;;;0.43;0.20;;;24.10;99.90;28.40;101636.00;;;;6308837;22;20709;-71
2023/08/07 07:57:56;;;;;;;0.10;0.10;;;24.50;99.90;27.20;101657.00;;;;6308281;22;20141;-71
2023/08/07 08:00:33;;;;;;;0.15;0.15;;;23.70;99.90;27.30;101661.00;;;;6266596;22;20164;-72
2023/08/07 08:02:59;;;;;;;1.17;0.43;;;23.20;99.90;26.40;101646.00;;;;6250546;22;20556;-74
2023/08/07 08:05:31;;;;;;;0.10;0.10;;;22.70;99.90;26.90;101672.00;;;;6225553;22;20198;-73
2023/08/07 08:07:57;;;;;;;0.20;0.20;;;22.90;99.90;27.90;101659.00;;;;6250033;22;20498;-72
2023/08/07 08:10:25;;;;;;;0.10;0.10;;;23.50;99.90;29.00;101655.00;;;;6250727;22;20211;-71
2023/08/07 08:12:51;;;;;;;0.10;0.10;;;24.30;99.90;30.10;101622.00;;;;6277978;22;20195;-71
2023/08/07 08:15:17;;;;;;;0.10;0.10;;;25.60;99.90;31.60;101619.00;;;;6250753;22;20141;-71
2023/08/07 08:17:43;;;;;;;0.25;0.25;;;26.70;99.90;30.80;101623.00;;;;6250799;22;20165;-71
2023/08/07 08:20:09;;;;;;;0.35;0.30;;;26.60;99.90;28.90;101661.00;;;;6250840;22;20149;-71
2023/08/07 08:22:41;;;;;;;0.10;0.10;;;25.60;99.90;27.30;101686.00;;;;6277324;22;20168;-73
2023/08/07 08:25:09;;;;;;;0.43;0.43;;;24.20;99.90;27.00;101687.00;;;;6277519;22;20141;-73
2023/08/07 08:27:35;;;;;;;0.10;0.10;;;23.40;99.90;28.00;101691.00;;;;6225630;22;20153;-73
2023/08/07 08:30:02;;;;;;;0.80;0.75;;;23.90;99.90;28.80;101684.00;;;;6224673;22;20176;-72
2023/08/07 08:32:28;;;;;;;0.10;0.10;;;24.60;99.90;29.50;101665.00;;;;6250439;22;20164;-70
2023/08/07 08:34:54;;;;;;;0.10;0.10;;;25.30;99.90;30.00;101666.00;;;;6250240;22;20161;-71
2023/08/07 08:37:20;;;;;;;0.17;0.17;;;25.90;99.90;29.30;101670.00;;;;6250590;22;20224;-70
2023/08/07 08:39:49;;;;;;;0.17;0.17;;;25.70;99.90;27.70;101705.00;;;;6250315;22;20625;-72
2023/08/07 08:42:17;;;;;;;0.35;0.35;;;24.50;99.90;27.60;101712.00;;;;6250455;22;20180;-73
2023/08/07 08:44:52;;;;;;;0.45;0.45;;;24.00;99.90;27.40;101714.00;;;;6251089;22;20565;-73
2023/08/07 08:47:22;;;;;;;0.13;0.13;;;23.90;99.90;27.70;101717.00;;;;6250376;22;20156;-73
2023/08/07 08:49:55;;;;;;;0.20;0.20;;;24.20;99.90;27.60;101714.00;;;;6250036;22;20570;-73
2023/08/07 08:52:21;;;;;;;0.10;0.10;;;24.40;99.90;29.10;101694.00;;;;6250473;22;20141;-71
2023/08/07 08:54:48;;;;;;;0.10;0.10;;;25.00;99.90;28.50;101683.00;;;;6250699;22;20171;-72
2023/08/07 08:57:14;;;;;;;0.30;0.30;;;25.00;99.90;28.40;101712.00;;;;6224536;22;20160;-72
2023/08/07 08:59:44;;;;;;;0.10;0.10;;;24.70;99.90;28.60;101698.00;;;;6256022;22;20168;-72
2023/08/07 09:02:10;;;;;;;0.20;0.20;;;24.80;99.90;28.30;101674.00;;;;6280796;22;20182;-72
2023/08/07 09:04:37;;;;;;;0.10;0.10;;;25.00;99.90;28.80;101717.00;;;;6255413;22;20152;-71
2023/08/07 09:07:06;;;;;;;0.10;0.10;;;25.20;99.90;29.10;101706.00;;;;6308079;22;20146;-72
2023/08/07 09:09:35;;;;;;;0.55;0.30;;;25.20;99.90;28.90;101697.00;;;;6280931;22;20514;-72
2023/08/07 09:12:06;;;;;;;0.28;0.28;;;25.00;99.90;28.40;101718.00;;;;6280544;22;20533;-72
2023/08/07 09:14:37;;;;;;;0.55;0.55;;;24.60;99.90;28.10;101732.00;;;;6280967;22;20598;-73
2023/08/07 09:17:04;;;;;;;0.35;0.28;;;24.30;99.90;27.40;101737.00;;;;6280541;22;20227;-72
2023/08/07 09:19:30;;;;;;;0.40;0.40;;;24.00;99.90;26.40;101764.00;;;;6307788;22;20147;-72
2023/08/07 09:21:56;;;;;;;0.10;0.10;;;23.20;99.90;26.90;101765.00;;;;6280879;22;20164;-72
2023/08/07 09:24:22;;;;;;;0.15;0.15;;;22.90;99.90;27.40;101766.00;;;;6307696;22;20141;-72
2023/08/07 09:26:53;;;;;;;0.10;0.10;;;23.50;99.90;28.20;101742.00;;;;6280792;22;20156;-73
2023/08/07 09:29:25;;;;;;;0.45;0.45;;;24.30;99.90;28.30;101734.00;;;;6307475;22;20164;-72
2023/08/07 09:31:54;;;;;;;0.57;0.30;;;24.50;99.90;26.20;101765.00;;;;6255130;22;20231;-72
2023/08/07 09:34:21;;;;;;;0.82;0.68;;;23.30;99.90;26.50;101774.00;;;;6280176;22;20573;-72
2023/08/07 09:36:47;;;;;;;0.25;0.25;;;22.90;99.90;26.70;101776.00;;;;6280801;22;20152;-72
2023/08/07 09:39:14;;;;;;;0.20;0.20;;;22.80;99.90;25.90;101783.00;;;;6280515;22;20167;-73
2023/08/07 09:41:52;;;;;;;0.20;0.20;;;22.60;99.90;26.80;101764.00;;;;6280495;22;20159;-72
2023/08/07 09:44:22;;;;;;;0.15;0.15;;;22.70;99.90;26.70;101772.00;;;;6255041;22;20580;-72
2023/08/07 09:46:50;;;;;;;0.10;0.10;;;22.90;99.90;27.50;101750.00;;;;6255146;22;20155;-72
2023/08/07 09:49:18;;;;;;;0.30;0.30;;;23.20;99.90;26.70;101767.00;;;;6279783;22;20148;-72
2023/08/07 09:51:47;;;;;;;0.20;0.20;;;23.10;99.90;26.10;101733.00;;;;6280777;22;20147;-72
2023/08/07 09:54:13;;;;;;;0.30;0.30;;;22.60;99.90;25.70;101748.00;;;;6280491;22;20194;-72
2023/08/07 09:56:47;;;;;;;0.10;0.10;;;22.30;99.90;26.10;101786.00;;;;6255004;22;20160;-72
2023/08/07 09:59:13;;;;;;;1.65;0.20;;;22.30;99.90;27.70;101772.00;;;;6279949;22;20140;-72
2023/08/07 10:01:43;;;;;;;0.52;0.20;;;23.40;99.90;28.00;101753.00;;;;6280535;22;20474;-72
2023/08/07 10:04:15;;;;;;;0.20;0.20;;;24.10;99.90;28.40;101744.00;;;;6255107;22;20155;-72
2023/08/07 10:06:45;;;;;;;0.10;0.10;;;24.60;99.90;28.50;101732.00;;;;6281106;22;20145;-73
2023/08/07 10:09:11;;;;;;;0.10;0.10;;;25.00;99.90;29.60;101713.00;;;;6254696;22;20151;-72
2023/08/07 10:11:42;;;;;;;0.40;0.40;;;25.40;99.90;29.40;101719.00;;;;6307913;22;20159;-72
2023/08/07 10:14:09;;;;;;;0.10;0.10;;;25.70;99.90;29.00;101686.00;;;;6280491;22;20148;-72
2023/08/07 10:16:39;;;;;;;0.10;0.10;;;25.40;99.90;29.40;101717.00;;;;6280243;22;20140;-72
2023/08/07 10:19:11;;;;;;;0.30;0.30;;;25.60;99.90;28.10;101717.00;;;;6279371;22;20167;-71
2023/08/07 10:33:45;;;;;;;0.65;0.65;;;23.50;99.90;26.80;101796.00;;;;5122788;27;1506649;-71
2023/08/07 10:36:34;;;;;;;0.10;0.10;;;23.50;99.90;27.30;101778.00;;;;5133015;27;20171;-70
2023/08/07 10:40:15;;;;;;;0.20;0.20;;;23.40;99.90;28.10;101769.00;;;;5119492;27;20175;-71
2023/08/07 10:43:27;;;;;;;0.20;0.20;;;23.80;99.90;28.50;101734.00;;;;5122362;27;20557;-71
2023/08/07 10:46:12;;;;;;;1.02;0.50;;;24.50;99.90;28.60;101754.00;;;;5151019;27;20188;-71
2023/08/07 10:48:56;;;;;;;0.10;0.10;;;24.70;99.90;28.80;101745.00;;;;5133411;27;20193;-71
2023/08/07 10:51:47;;;;;;;0.20;0.20;;;25.10;99.90;28.70;101715.00;;;;5133569;27;20205;-70
2023/08/07 10:54:43;;;;;;;0.10;0.10;;;25.30;99.90;29.80;101712.00;;;;5042347;28;20191;-71
2023/08/07 10:57:32;;;;;;;0.10;0.10;;;25.80;99.90;30.60;101730.00;;;;5103300;27;20206;-71
2023/08/07 11:00:09;;;;;;;0.10;0.10;;;26.40;99.90;30.30;101738.00;;;;5119016;27;20183;-71
2023/08/07 11:03:00;;;;;;;0.20;0.20;;;26.50;99.90;30.10;101742.00;;;;5115682;27;20243;-69
2023/08/07 11:06:07;;;;;;;0.10;0.10;;;26.50;99.90;29.80;101659.00;;;;5041087;28;20318;-69
2023/08/07 11:09:20;;;;;;;0.20;0.20;;;26.20;99.90;29.90;101700.00;;;;5052860;28;20213;-69
2023/08/07 11:12:36;;;;;;;0.63;0.63;;;26.20;99.90;30.20;101712.00;;;;5052604;28;20212;-69
2023/08/07 11:15:07;;;;;;;0.10;0.10;;;26.40;99.90;30.90;101699.00;;;;5048287;28;20229;-70
2023/08/07 11:17:57;;;;;;;0.60;0.60;;;26.90;99.90;30.80;101704.00;;;;5050899;28;20679;-69
2023/08/07 11:20:26;;;;;;;0.20;0.20;;;27.30;99.90;29.50;101702.00;;;;5050478;28;20185;-70
2023/08/07 11:23:12;;;;;;;0.13;0.13;;;26.60;99.90;29.40;101717.00;;;;5050329;28;20292;-69
2023/08/07 11:25:38;;;;;;;0.20;0.20;;;25.90;99.90;29.90;101720.00;;;;5026684;28;20189;-69
2023/08/07 11:28:08;;;;;;;0.10;0.10;;;25.90;99.90;29.40;101704.00;;;;5068468;27;20538;-69
2023/08/07 11:30:35;;;;;;;0.10;0.10;;;25.90;99.90;29.60;101717.00;;;;5132315;27;20183;-71
2023/08/07 11:33:23;;;;;;;0.20;0.20;;;25.80;99.90;29.70;101706.00;;;;5150945;27;20295;-71
2023/08/07 11:36:12;;;;;;;0.10;0.10;;;25.90;99.90;29.20;101691.00;;;;5066719;28;20308;-71
2023/08/07 11:39:03;;;;;;;0.15;0.15;;;25.60;99.90;28.30;101733.00;;;;5133652;27;20209;-71
2023/08/07 11:41:52;;;;;;;0.10;0.10;;;24.80;99.90;28.30;101738.00;;;;5128337;28;20180;-71
2023/08/07 11:44:19;;;;;;;0.10;0.10;;;24.70;99.90;29.50;101736.00;;;;5132124;27;20224;-71
2023/08/07 11:47:06;;;;;;;0.20;0.20;;;25.40;99.90;28.50;101727.00;;;;5100626;28;20214;-71
2023/08/07 11:49:52;;;;;;;0.45;0.45;;;25.50;99.90;29.80;101736.00;;;;5099962;28;20312;-71
2023/08/07 11:52:40;;;;;;;0.10;0.10;;;25.90;99.90;28.50;101740.00;;;;5100789;27;20204;-71
2023/08/07 12:01:47;;;;;;;1.00;0.98;;;24.50;99.90;28.00;101760.00;;;;5109876;27;20191;-70
2023/08/07 12:04:20;;;;;;;0.17;0.17;;;24.10;99.90;27.90;101763.00;;;;5118954;27;20179;-70
2023/08/07 12:07:19;;;;;;;0.10;0.10;;;24.00;99.90;28.40;101763.00;;;;5112149;27;20232;-71
2023/08/07 12:10:11;;;;;;;0.10;0.10;;;24.30;99.90;28.50;101748.00;;;;5036319;28;20194;-71
2023/08/07 12:12:44;;;;;;;0.10;0.10;;;24.60;99.90;28.50;101744.00;;;;4946320;28;20235;-71
2023/08/07 12:15:31;;;;;;;0.10;0.10;;;24.80;99.90;28.60;101749.00;;;;5047082;28;20285;-70
2023/08/07 12:18:13;;;;;;;0.10;0.10;;;24.90;99.90;28.40;101745.00;;;;5035862;28;20202;-70
2023/08/07 12:20:59;;;;;;;0.30;0.30;;;24.70;99.90;27.70;101756.00;;;;5036909;28;20198;-71
2023/08/07 12:23:49;;;;;;;0.10;0.10;;;24.20;99.90;27.80;101761.00;;;;5004359;28;20257;-70
2023/08/07 12:26:35;;;;;;;0.20;0.20;;;24.00;99.90;27.60;101743.00;;;;5055356;28;20219;-70
2023/08/07 12:29:28;;;;;;;0.20;0.20;;;24.10;99.90;27.60;101755.00;;;;5127808;27;20574;-70
2023/08/07 12:32:06;;;;;;;0.15;0.15;;;23.90;99.90;27.70;101748.00;;;;5096315;28;20311;-71
2023/08/07 12:34:53;;;;;;;0.20;0.20;;;23.80;99.90;27.40;101754.00;;;;5098625;27;20175;-71
2023/08/07 12:37:36;;;;;;;0.20;0.20;;;23.50;99.90;27.40;101766.00;;;;5115582;27;20229;-71
2023/08/07 12:40:05;;;;;;;0.10;0.10;;;23.40;99.90;27.00;101774.00;;;;5118317;27;20178;-71
2023/08/07 12:42:34;;;;;;;0.20;0.20;;;23.50;99.90;27.20;101778.00;;;;5117052;27;20188;-71
2023/08/07 12:45:30;;;;;;;0.22;0.22;;;23.50;99.90;27.80;101769.00;;;;5135851;27;20175;-71
2023/08/07 12:48:19;;;;;;;0.10;0.10;;;23.60;99.90;27.90;101764.00;;;;5093751;27;20222;-71
2023/08/07 12:50:48;;;;;;;4.13;0.47;;;23.80;99.90;26.90;101761.00;;;;5093878;27;20184;-71
2023/08/07 12:53:37;;;;;;;0.10;0.10;;;23.60;99.90;27.10;101773.00;;;;5099939;27;20217;-71
2023/08/07 12:56:23;;;;;;;0.65;0.65;;;23.30;99.90;27.00;101792.00;;;;5116397;27;20195;-71
2023/08/07 12:58:58;;;;;;;0.10;0.10;;;23.30;99.90;25.80;101800.00;;;;5102321;27;20716;-71
2023/08/07 13:01:38;;;;;;;0.10;0.10;;;22.70;99.90;25.20;101801.00;;;;5135469;27;20694;-71
2023/08/07 13:04:24;;;;;;;0.10;0.10;;;22.30;99.90;25.20;101817.00;;;;5117111;27;20183;-71
2023/08/07 13:07:05;;;;;;;3.65;0.55;;;22.00;99.90;24.20;101782.00;;;;5095932;27;20241;-71
2023/08/07 13:09:55;;;;;;;0.10;0.10;;;21.40;99.90;26.10;101816.00;;;;5111576;27;20179;-71
2023/08/07 13:12:24;;;;;;;0.35;0.35;;;22.10;99.90;26.30;101817.00;;;;5101911;27;20218;-71
2023/08/07 13:15:12;;;;;;;0.20;0.20;;;22.50;99.90;26.80;101814.00;;;;5117155;27;20252;-71
2023/08/07 13:18:05;;;;;;;0.10;0.10;;;22.90;99.90;26.90;101799.00;;;;5113960;27;20190;-71
2023/08/07 13:20:33;;;;;;;0.10;0.10;;;23.00;99.90;27.10;101796.00;;;;5089291;27;20241;-71
2023/08/07 13:23:22;;;;;;;0.60;0.43;;;23.10;99.90;26.80;101795.00;;;;5116949;27;20187;-71
2023/08/07 13:26:09;;;;;;;0.10;0.10;;;23.10;99.90;25.60;101814.00;;;;5116772;27;20640;-71
2023/08/07 13:28:52;;;;;;;0.20;0.20;;;22.60;99.90;26.20;101807.00;;;;5111033;27;20215;-71
2023/08/07 13:31:21;;;;;;;0.80;0.80;;;22.60;99.90;26.40;101794.00;;;;5116583;27;20179;-71
2023/08/07 13:34:00;;;;;;;0.15;0.15;;;22.90;99.90;25.10;101828.00;;;;5109918;28;20283;-71
2023/08/07 13:36:52;;;;;;;0.40;0.40;;;22.20;99.90;25.70;101829.00;;;;5098427;27;20175;-71
2023/08/07 13:39:24;;;;;;;0.10;0.10;;;22.20;99.90;26.50;101784.00;;;;5105276;27;20203;-70
2023/08/07 13:42:08;;;;;;;0.13;0.13;;;22.50;99.90;26.40;101814.00;;;;5099251;27;20196;-71
2023/08/07 13:44:58;;;;;;;0.82;0.57;;;22.70;99.90;24.90;101834.00;;;;5116412;27;20274;-70
2023/08/07 13:47:42;;;;;;;0.55;0.55;;;22.00;99.90;25.80;101817.00;;;;5099464;27;20551;-71
2023/08/07 13:50:30;;;;;;;0.10;0.10;;;22.30;99.90;26.60;101803.00;;;;5094312;27;20183;-71
2023/08/07 13:53:05;;;;;;;0.10;0.10;;;22.70;99.90;26.50;101791.00;;;;5100986;27;20202;-71
2023/08/07 13:55:46;;;;;;;0.10;0.10;;;22.90;99.90;26.60;101765.00;;;;5116631;27;20266;-71
2023/08/07 13:58:35;;;;;;;0.20;0.20;;;22.80;99.90;26.10;101796.00;;;;5104703;27;20174;-71
2023/08/07 14:01:19;;;;;;;0.25;0.25;;;22.70;99.90;26.20;101800.00;;;;5102051;27;20649;-71
2023/08/07 14:03:52;;;;;;;0.10;0.10;;;22.70;99.90;26.40;101810.00;;;;5115960;27;20266;-71
2023/08/07 14:06:19;;;;;;;0.20;0.20;;;22.80;99.90;26.30;101806.00;;;;5115903;27;20179;-71
2023/08/07 14:09:05;;;;;;;0.10;0.10;;;22.70;99.90;25.60;101797.00;;;;5115913;27;20197;-71
2023/08/07 14:11:42;;;;;;;0.15;0.15;;;22.50;99.90;26.30;101806.00;;;;5103076;27;20260;-71
2023/08/07 14:14:20;;;;;;;0.70;0.45;;;22.50;99.90;26.00;101822.00;;;;5129102;27;20183;-71
2023/08/07 14:16:57;;;;;;;0.10;0.10;;;22.50;99.90;25.90;101823.00;;;;5115623;27;20187;-71
2023/08/07 14:19:44;;;;;;;0.35;0.35;;;22.40;99.90;25.90;101830.00;;;;5134150;27;20189;-70
2023/08/07 14:22:35;;;;;;;0.15;0.15;;;22.30;99.90;26.70;101821.00;;;;5050439;28;20204;-71
2023/08/07 14:25:16;;;;;;;0.10;0.10;;;22.50;99.90;25.90;101811.00;;;;5114233;28;20175;-71
2023/08/07 14:28:04;;;;;;;0.43;0.43;;;22.30;99.90;24.00;101860.00;;;;5116237;28;20182;-71
2023/08/07 14:30:50;;;;;;;0.15;0.13;;;21.50;99.90;25.00;101842.00;;;;5102290;28;20197;-71
2023/08/07 14:33:22;;;;;;;0.10;0.10;;;21.80;99.90;25.70;101831.00;;;;5118294;27;20231;-71
2023/08/07 14:36:08;;;;;;;0.10;0.10;;;22.10;99.90;26.10;101831.00;;;;5134002;28;20509;-71
2023/08/07 14:38:43;;;;;;;0.22;0.20;;;22.40;99.90;26.40;101823.00;;;;5132769;28;20172;-71
2023/08/07 14:41:29;;;;;;;0.10;0.10;;;22.60;99.90;26.50;101780.00;;;;5112051;28;20246;-71
2023/08/07 14:44:16;;;;;;;0.10;0.10;;;22.60;99.90;26.20;101769.00;;;;5111913;28;20210;-71
2023/08/07 14:47:02;;;;;;;0.30;0.30;;;22.70;99.90;26.30;101810.00;;;;5083346;28;20591;-71
2023/08/07 14:49:51;;;;;;;0.10;0.10;;;22.60;99.90;26.10;101815.00;;;;5118178;28;20201;-71
2023/08/07 14:52:26;;;;;;;0.10;0.10;;;22.50;99.90;26.50;101798.00;;;;5113521;28;20240;-71
2023/08/07 14:55:21;;;;;;;0.13;0.13;;;22.50;99.90;26.10;101818.00;;;;5134031;28;20179;-71
2023/08/07 14:57:59;;;;;;;0.10;0.10;;;22.50;99.90;25.50;101835.00;;;;5115501;28;20593;-70
2023/08/07 15:00:34;;;;;;;0.32;0.32;;;22.00;99.90;25.70;101823.00;;;;5109830;28;20194;-70
2023/08/07 15:03:23;;;;;;;0.55;0.55;;;21.90;99.90;25.40;101835.00;;;;5103802;28;20201;-71
2023/08/07 15:06:00;;;;;;;0.30;0.30;;;21.70;99.90;25.40;101821.00;;;;5079136;28;20278;-70
2023/08/07 15:08:31;;;;;;;0.30;0.30;;;21.70;99.90;25.20;101828.00;;;;5105121;28;20635;-70
2023/08/07 15:11:06;;;;;;;0.30;0.30;;;21.90;99.90;22.90;101853.00;;;;5133553;28;20184;-71
2023/08/07 15:13:52;;;;;;;0.20;0.20;;;21.20;99.90;25.20;101834.00;;;;5115132;28;20277;-70
2023/08/07 15:16:41;;;;;;;0.20;0.20;;;21.40;99.90;26.20;101838.00;;;;5114652;28;20203;-71
2023/08/07 15:19:27;;;;;;;0.10;0.10;;;22.00;99.90;26.70;101802.00;;;;5106389;27;20270;-71
2023/08/07 15:22:02;;;;;;;0.20;0.20;;;22.50;99.90;26.20;101824.00;;;;5112541;27;20653;-71
2023/08/07 15:24:48;;;;;;;0.20;0.20;;;22.60;99.90;26.40;101833.00;;;;5119011;27;20179;-71
2023/08/07 15:27:35;;;;;;;0.20;0.20;;;22.70;99.90;26.70;101826.00;;;;5102306;27;20685;-71
2023/08/07 15:30:26;;;;;;;0.20;0.20;;;22.70;99.90;26.30;101818.00;;;;5137117;27;20204;-71
2023/08/07 15:32:59;;;;;;;0.30;0.30;;;22.60;99.90;26.00;101819.00;;;;5107996;27;20227;-70
2023/08/07 15:35:45;;;;;;;0.30;0.30;;;22.50;99.90;25.70;101828.00;;;;5103767;27;20269;-71
2023/08/07 15:38:20;;;;;;;0.65;0.65;;;22.20;99.90;26.00;101841.00;;;;5118342;27;20176;-71
2023/08/07 15:41:07;;;;;;;3.53;0.93;;;22.10;99.90;26.10;101829.00;;;;5136857;27;20203;-71
2023/08/07 15:43:57;;;;;;;0.93;0.75;;;22.20;99.90;26.00;101830.00;;;;5130639;27;20195;-71
2023/08/07 15:46:32;;;;;;;0.20;0.20;;;22.10;99.90;25.50;101833.00;;;;5111485;27;20183;-71
2023/08/07 15:49:15;;;;;;;0.85;0.85;;;22.00;99.90;25.90;101779.00;;;;5118784;27;20175;-71
2023/08/07 15:52:05;;;;;;;0.10;0.10;;;22.10;99.90;26.10;101819.00;;;;5118008;27;20223;-71
2023/08/07 15:54:42;;;;;;;0.20;0.20;;;22.10;99.90;26.50;101814.00;;;;5120540;27;20392;-71
2023/08/07 15:57:31;;;;;;;0.10;0.10;;;22.30;99.90;26.20;101800.00;;;;5126802;27;20233;-71
2023/08/07 16:00:17;;;;;;;6.72;1.00;;;22.30;99.90;26.30;101816.00;;;;5105159;27;20279;-71
2023/08/07 16:03:07;;;;;;;0.30;0.30;;;22.30;99.90;26.60;101790.00;;;;5116239;27;20184;-71
2023/08/07 16:05:51;;;;;;;0.85;0.85;;;22.50;99.90;26.10;101775.00;;;;5118096;27;20637;-71
2023/08/07 16:08:40;;;;;;;0.20;0.20;;;22.30;99.90;26.00;101836.00;;;;5118095;27;20183;-71
2023/08/07 16:11:31;;;;;;;0.20;0.20;;;22.10;99.90;25.10;101828.00;;;;5105349;28;20241;-71
2023/08/07 16:14:04;;;;;;;0.10;0.10;;;21.70;99.90;25.40;101829.00;;;;5102065;27;20263;-71
2023/08/07 16:16:30;;;;;;;0.10;0.10;;;21.50;99.90;25.80;101811.00;;;;5118247;27;20272;-71
2023/08/07 16:19:14;;;;;;;0.20;0.20;;;21.70;99.90;26.10;101818.00;;;;5118929;27;20196;-71
2023/08/07 16:21:45;;;;;;;0.10;0.10;;;21.90;99.90;24.70;101830.00;;;;5101417;27;20192;-71
2023/08/07 16:24:17;;;;;;;0.52;0.52;;;21.60;99.90;25.20;101819.00;;;;5100155;28;20184;-70
2023/08/07 16:26:45;;;;;;;0.10;0.10;;;21.50;99.90;25.10;101820.00;;;;5102584;28;20192;-71
2023/08/07 16:29:16;;;;;;;0.10;0.10;;;21.40;99.90;25.10;101831.00;;;;5105579;27;20240;-71
2023/08/07 16:32:04;;;;;;;0.10;0.10;;;21.40;99.90;25.80;101823.00;;;;5099929;28;20203;-70
2023/08/07 16:34:36;;;;;;;0.10;0.10;;;21.50;99.90;25.70;101807.00;;;;5123264;27;20183;-71
2023/08/07 16:37:13;;;;;;;0.10;0.10;;;21.70;99.90;26.30;101813.00;;;;5100044;27;20191;-71
2023/08/07 16:39:48;;;;;;;0.20;0.20;;;21.90;99.90;26.00;101798.00;;;;5117739;27;20211;-71
2023/08/07 16:42:28;;;;;;;0.30;0.30;;;22.10;99.90;25.80;101818.00;;;;5114302;27;20193;-71
2023/08/07 16:45:17;;;;;;;0.10;0.10;;;22.00;99.90;25.50;101777.00;;;;5100607;27;20629;-71
2023/08/07 16:48:03;;;;;;;0.13;0.13;;;22.00;99.90;25.70;101814.00;;;;5087482;27;20188;-71
2023/08/07 16:50:34;;;;;;;0.10;0.10;;;21.90;99.90;26.10;101803.00;;;;5119134;27;20183;-70
2023/08/07 16:53:23;;;;;;;0.30;0.30;;;22.10;99.90;26.30;101794.00;;;;5100221;27;20199;-71
2023/08/07 16:56:00;;;;;;;0.10;0.10;;;22.10;99.90;26.30;101741.00;;;;5106224;28;21111;-70
2023/08/07 16:58:32;;;;;;;0.10;0.10;;;22.20;99.90;25.90;101787.00;;;;5111687;27;20183;-72
2023/08/07 17:01:19;;;;;;;0.10;0.10;;;22.10;99.90;25.80;101783.00;;;;5117147;27;20236;-71
2023/08/07 17:04:05;;;;;;;0.10;0.10;;;21.90;99.90;25.60;101778.00;;;;5116983;27;20189;-71
2023/08/07 17:06:40;;;;;;;0.10;0.10;;;22.00;99.90;25.90;101772.00;;;;5117190;27;20239;-70
2023/08/07 17:09:29;;;;;;;0.85;0.85;;;21.90;99.90;25.80;101768.00;;;;5116944;27;20270;-71
2023/08/07 17:12:04;;;;;;;0.13;0.13;;;21.90;99.90;25.80;101766.00;;;;5087504;28;20650;-71
2023/08/07 17:14:51;;;;;;;0.10;0.10;;;21.80;99.90;25.10;101786.00;;;;5115521;27;20649;-71
2023/08/07 17:17:25;;;;;;;0.10;0.10;;;21.70;99.90;25.90;101779.00;;;;5116243;27;20191;-72
2023/08/07 17:20:14;;;;;;;0.20;0.20;;;21.70;99.90;25.80;101781.00;;;;5113976;27;20179;-71
2023/08/07 17:22:51;;;;;;;0.10;0.10;;;21.80;99.90;25.90;101773.00;;;;5073212;28;20196;-72
2023/08/07 17:25:40;;;;;;;0.10;0.10;;;21.90;99.90;26.10;101758.00;;;;5110776;27;20294;-71
2023/08/07 17:28:17;;;;;;;0.40;0.40;;;21.90;99.90;25.90;101749.00;;;;5108754;27;20184;-71
2023/08/07 17:31:04;;;;;;;0.10;0.10;;;21.90;99.90;26.40;101766.00;;;;5131103;27;20179;-71
2023/08/07 17:33:43;;;;;;;0.10;0.10;;;22.00;99.90;25.60;101748.00;;;;5099005;27;20670;-71
2023/08/07 17:36:11;;;;;;;0.10;0.10;;;21.90;99.90;26.10;101772.00;;;;5110423;27;20175;-72
2023/08/07 17:38:48;;;;;;;0.10;0.10;;;21.90;99.90;25.70;101782.00;;;;5099005;27;20219;-72
2023/08/07 17:41:38;;;;;;;0.35;0.35;;;21.80;99.90;25.90;101781.00;;;;5126241;27;20225;-72
2023/08/07 17:44:40;;;;;;;0.10;0.10;;;21.70;99.90;25.50;101792.00;;;;5108423;27;20203;-72
2023/08/07 17:47:09;;;;;;;0.20;0.20;;;21.50;99.90;25.40;101781.00;;;;5095807;27;20637;-71
2023/08/07 17:49:57;;;;;;;0.15;0.15;;;21.50;99.90;25.10;101783.00;;;;5123376;27;20235;-71
2023/08/07 17:52:46;;;;;;;0.10;0.10;;;21.30;99.90;25.20;101774.00;;;;5097589;28;20203;-71
2023/08/07 17:55:33;;;;;;;0.20;0.20;;;21.10;99.90;25.60;101762.00;;;;5082220;28;20191;-72
2023/08/07 17:58:25;;;;;;;0.20;0.20;;;21.30;99.90;25.60;101757.00;;;;5098647;27;20167;-71
2023/08/07 18:00:51;;;;;;;0.30;0.30;;;21.40;99.90;25.70;101738.00;;;;5115540;27;20641;-72
2023/08/07 18:03:28;;;;;;;1.05;1.05;;;21.50;99.90;25.40;101743.00;;;;5116126;27;20190;-71
2023/08/07 18:06:03;;;;;;;0.10;0.10;;;21.50;99.90;25.60;101732.00;;;;5115627;27;20175;-71
2023/08/07 18:08:54;;;;;;;0.20;0.20;;;21.40;99.90;25.50;101734.00;;;;5116134;27;20233;-71
2023/08/07 18:11:25;;;;;;;0.10;0.10;;;21.40;99.90;25.40;101736.00;;;;5091057;27;20175;-71
2023/08/07 18:14:11;;;;;;;0.10;0.10;;;21.30;99.90;25.60;101724.00;;;;5128869;27;20187;-71
2023/08/07 18:16:54;;;;;;;0.10;0.10;;;21.40;99.90;25.40;101723.00;;;;5134045;27;20183;-71
2023/08/07 18:19:29;;;;;;;0.10;0.10;;;21.40;99.90;25.30;101732.00;;;;5098967;28;20187;-71
2023/08/07 18:22:15;;;;;;;0.20;0.20;;;21.20;99.90;25.20;101725.00;;;;5131101;27;20190;-71
2023/08/07 18:25:02;;;;;;;0.20;0.20;;;21.00;99.90;25.10;101742.00;;;;5108292;27;20211;-71
2023/08/07 18:27:54;;;;;;;0.10;0.10;;;21.10;99.90;24.10;101754.00;;;;5100091;27;20198;-71
2023/08/07 18:30:23;;;;;;;0.10;0.10;;;20.70;99.90;24.60;101761.00;;;;5106700;28;20240;-71
2023/08/07 18:33:12;;;;;;;0.10;0.10;;;20.70;99.90;24.50;101758.00;;;;5098293;28;20211;-71
2023/08/07 18:35:38;;;;;;;0.20;0.20;;;20.70;99.90;25.00;101748.00;;;;5115840;28;20192;-71
2023/08/07 18:38:32;;;;;;;0.10;0.10;;;20.70;99.90;24.50;101757.00;;;;5095411;28;20187;-71
2023/08/07 18:41:09;;;;;;;0.10;0.10;;;20.60;99.90;24.60;101742.00;;;;5114439;28;20179;-71
2023/08/07 18:44:01;;;;;;;1.35;0.30;;;20.60;99.90;23.70;101768.00;;;;5115576;28;20191;-71
2023/08/07 18:46:42;;;;;;;0.10;0.10;;;20.20;99.90;23.20;101777.00;;;;5105446;28;20176;-71
2023/08/07 18:49:14;;;;;;;0.10;0.10;;;19.80;99.90;23.20;101785.00;;;;5098228;28;20182;-71
2023/08/07 18:51:49;;;;;;;0.15;0.15;;;19.70;99.90;22.30;101779.00;;;;5116341;28;20202;-71
2023/08/07 18:54:34;;;;;;;0.50;0.50;;;19.50;99.90;22.80;101789.00;;;;5100617;27;20187;-71